Impacts TAF Board
For situational awareness. Not to be used for flight planning purposes.
IDs:

KFST - Fort Stockton/Pecos, TX, US

Issued at 1123 UTC 30 Oct 2020
Updated at 1653 UTC 30 Oct 2020
Potential Impact None Slight Moderate High
Time1553Z 30/17Z 30/18Z 30/19Z 30/20Z 30/21Z 30/22Z 30/23Z 31/00Z 31/01Z 31/02Z 31/03Z 31/04Z 31/05Z>>
Type OBS PRVL PRVL PRVL PRVL PRVL PRVL PRVL PRVL PRVL PRVL PRVL PRVL PRVL
VIS 10 >6 >6 >6 >6 >6 >6 >6 >6 >6 >6 >6 >6 >6
CIG -- -- -- -- -- -- -- -- -- -- -- -- -- --
Cover CLR FEW FEW FEW FEW FEW FEW FEW FEW FEW FEW FEW FEW FEW
FltCat VFR VFR VFR VFR VFR VFR VFR VFR VFR VFR VFR VFR VFR VFR
WX -- -- -- -- -- -- -- -- -- -- -- -- -- --
WDir VRB 130 130 130 130 130 130 130 130 130 130 130 130 130
WSpd 0 10 10 10 10 10 10 10 10 10 10 10 10 10
WGst -- -- -- -- -- -- -- -- -- -- -- -- -- --
Raw TAF
KFST 301123Z 3012/3112 18008KT P6SM FEW250
  FM301700 13010KT P6SM FEW250


Raw METAR
KFST 301553Z AUTO 00000KT 10SM CLR 14/02 A3032 RMK AO2 SLP243 T01390022
KFST 301453Z AUTO 12003KT 10SM CLR 09/02 A3032 RMK AO2 SLP246 T00940017 53011
KFST 301353Z AUTO 15006KT 10SM CLR 05/01 A3030 RMK AO2 SLP243 T00500006

METAR Board
Radar Display
Forecast Discussion
For situational awareness. Not to be used for flight planning purposes.